createdAt,value
2017-08-17T18:51:31.095Z,58.69
2017-08-17T18:52:41.359Z,59.1
2017-08-17T18:53:51.598Z,59.49
2017-08-17T18:55:01.820Z,59.07
2017-08-17T18:56:11.737Z,59.07
2017-08-17T18:57:21.068Z,59.75
2017-08-17T18:58:30.678Z,59.46
2017-08-17T18:59:40.616Z,59.75
2017-08-17T19:00:50.532Z,59.56
2017-08-17T19:02:00.156Z,59.56
2017-08-17T19:03:10.480Z,59.36
2017-08-17T19:04:20.400Z,59.56
2017-08-17T19:05:30.194Z,60.14
2017-08-17T19:06:40.425Z,60.04
2017-08-17T19:07:50.334Z,60.21
2017-08-17T19:08:59.665Z,59.91
2017-08-17T19:10:09.897Z,60.01
2017-08-17T19:11:19.823Z,60.4
2017-08-17T19:12:29.438Z,60.3
2017-08-17T19:13:39.674Z,60.3
2017-08-17T19:14:49.593Z,60.11
2017-08-17T19:15:59.595Z,60.5
2017-08-17T19:17:09.668Z,60.11
2017-08-17T19:18:19.716Z,60.5
2017-08-17T19:19:29.031Z,60.5
2017-08-17T19:20:39.257Z,60.5
2017-08-17T19:21:49.187Z,60.59
2017-08-17T19:22:58.501Z,60.69
2017-08-17T19:24:08.115Z,60.59
2017-08-17T19:25:17.731Z,60.59
2017-08-17T19:26:27.350Z,60.5
2017-08-17T19:27:37.278Z,60.59
2017-08-17T19:28:47.506Z,60.4
2017-08-17T19:29:57.420Z,60.5
2017-08-17T19:31:07.641Z,60.59
2017-08-17T19:32:18.023Z,60.69
2017-08-17T19:33:28.257Z,60.5
2017-08-17T19:34:38.202Z,60.59
2017-08-17T19:35:48.104Z,60.4
2017-08-17T19:36:58.013Z,60.59
2017-08-17T19:38:08.087Z,60.66
2017-08-17T19:39:17.712Z,60.57
2017-08-17T19:40:27.635Z,60.5
2017-08-17T19:41:37.553Z,60.59
2017-08-17T19:42:47.479Z,60.88
2017-08-17T19:43:57.497Z,60.57
2017-08-17T19:45:07.103Z,61.05
2017-08-17T19:46:17.032Z,60.75
2017-08-17T19:47:27.259Z,60.75
2017-08-17T19:48:37.198Z,60.75
2017-08-17T19:49:46.519Z,60.66
2017-08-17T19:50:56.438Z,60.75
2017-08-17T19:52:06.366Z,60.85
2017-08-17T19:53:16.026Z,60.66
2017-08-17T19:54:25.990Z,60.66
2017-08-17T19:55:36.033Z,60.75
2017-08-17T19:56:45.955Z,60.66
2017-08-17T19:57:55.930Z,60.75
2017-08-17T19:59:06.162Z,60.75
2017-08-17T20:00:15.794Z,60.75
2017-08-17T20:01:26.314Z,60.75
2017-08-17T20:02:36.234Z,60.66
2017-08-17T20:03:46.483Z,60.47
2017-08-17T20:04:56.403Z,60.75
2017-08-17T20:06:06.334Z,60.47
2017-08-17T20:07:16.250Z,60.66
2017-08-17T20:08:25.868Z,60.75
2017-08-17T20:09:35.474Z,60.75
2017-08-17T20:10:45.412Z,60.75
2017-08-17T20:11:55.634Z,60.47
2017-08-17T20:13:05.045Z,60.57
2017-08-17T20:14:14.986Z,60.95
2017-08-17T20:15:24.330Z,60.85
2017-08-17T20:16:34.641Z,60.85
2017-08-17T20:17:44.979Z,60.66
2017-08-17T20:18:54.591Z,60.85
2017-08-17T20:20:04.535Z,60.57
2017-08-17T20:21:14.520Z,60.57
2017-08-17T20:22:24.457Z,60.47
2017-08-17T20:23:34.075Z,60.75
2017-08-17T20:24:44.096Z,60.57
2017-08-17T20:25:54.344Z,60.47
2017-08-17T20:27:03.964Z,60.85
2017-08-17T20:28:13.574Z,60.95
2017-08-17T20:29:23.500Z,60.95
2017-08-17T20:30:33.420Z,60.95
2017-08-17T20:31:42.743Z,60.95
2017-08-17T20:32:52.667Z,60.75
2017-08-17T20:34:02.004Z,60.75
2017-08-17T20:35:11.936Z,60.75
2017-08-17T20:36:21.902Z,61.33
2017-08-17T20:37:31.855Z,61.24
2017-08-17T20:38:41.184Z,61.02
2017-08-17T20:39:51.122Z,61.6
2017-08-17T20:41:01.046Z,61.43
2017-08-17T20:42:10.710Z,61.69
2017-08-17T20:43:20.352Z,61.24
2017-08-17T20:44:30.641Z,61.63
2017-08-17T20:45:40.575Z,61.63
2017-08-17T20:46:50.827Z,61.72
2017-08-17T20:48:01.115Z,61.82
2017-08-17T20:49:11.055Z,61.79
2017-08-17T20:50:21.314Z,61.79
2017-08-17T20:51:31.535Z,61.79
2017-08-17T20:52:41.168Z,61.82
2017-08-17T20:53:51.464Z,61.6
2017-08-17T20:55:01.413Z,61.43
2017-08-17T20:56:11.024Z,61.72
2017-08-17T20:57:20.684Z,61.3
2017-08-17T20:58:30.949Z,61.5
2017-08-17T20:59:40.874Z,61.21
2017-08-17T21:00:50.821Z,61.33
2017-08-17T21:02:01.061Z,61.33
2017-08-17T21:03:10.981Z,61.43
2017-08-17T21:04:20.903Z,61.6
2017-08-17T21:05:30.979Z,61.4
2017-08-17T21:06:40.907Z,61.3
2017-08-17T21:07:50.212Z,61.3
2017-08-17T21:09:00.134Z,61.5
2017-08-17T21:10:10.076Z,61.3
2017-08-17T21:11:20.090Z,61.43
2017-08-17T21:12:30.042Z,61.24
2017-08-17T21:13:39.957Z,61.3
2017-08-17T21:14:49.582Z,61.4
2017-08-17T21:15:59.240Z,61.3
2017-08-17T21:17:09.322Z,61.6
2017-08-17T21:18:18.321Z,61.69
2017-08-17T21:19:28.237Z,61.6
2017-08-17T21:20:38.167Z,61.69
2017-08-17T21:21:48.099Z,61.69
2017-08-17T21:22:58.194Z,61.6
2017-08-17T21:24:08.122Z,61.79
2017-08-17T21:25:18.043Z,61.4
2017-08-17T21:26:27.357Z,61.43
2017-08-17T21:27:37.617Z,61.24
2017-08-17T21:28:47.908Z,61.24
2017-08-17T21:29:57.822Z,61.15
2017-08-17T21:31:07.736Z,61.53
2017-08-17T21:32:17.672Z,61.53
2017-08-17T21:33:27.121Z,61.33
2017-08-17T21:34:37.203Z,61.15
2017-08-17T21:35:47.161Z,60.95
2017-08-17T21:36:56.785Z,60.66
2017-08-17T21:38:07.029Z,60.95
2017-08-17T21:39:16.940Z,60.85
2017-08-17T21:40:26.052Z,60.66
2017-08-17T21:41:36.347Z,60.75
2017-08-17T21:42:45.983Z,60.85
2017-08-17T21:43:55.938Z,60.85
2017-08-17T21:45:05.917Z,60.85
2017-08-17T21:46:16.300Z,60.85
2017-08-17T21:47:26.544Z,60.75
2017-08-17T21:48:37.004Z,60.57
2017-08-17T21:49:47.227Z,60.95
2017-08-17T21:50:57.469Z,60.57
2017-08-17T21:52:07.442Z,60.66
2017-08-17T21:53:16.758Z,60.57
2017-08-17T21:54:26.697Z,60.57
2017-08-17T21:55:36.933Z,60.57
2017-08-17T21:56:46.258Z,60.66
2017-08-17T21:57:56.841Z,60.57
2017-08-17T21:59:07.072Z,60.57
2017-08-17T22:00:17.073Z,60.57
2017-08-17T22:01:26.694Z,60.75
2017-08-17T22:02:35.693Z,60.47
2017-08-17T22:03:45.979Z,60.57
2017-08-17T22:04:56.198Z,60.57
2017-08-17T22:06:05.205Z,60.47
2017-08-17T22:07:15.130Z,60.57
2017-08-17T22:08:24.808Z,60.57
2017-08-17T22:09:34.728Z,60.47
2017-08-17T22:10:44.653Z,60.75
2017-08-17T22:11:54.875Z,60.75
2017-08-17T22:13:04.513Z,60.75
2017-08-17T22:14:14.131Z,60.57
2017-08-17T22:15:23.800Z,60.47
2017-08-17T22:16:33.724Z,60.66
2017-08-17T22:17:43.029Z,60.47
2017-08-17T22:18:52.635Z,60.66
2017-08-17T22:20:02.866Z,61.05
2017-08-17T22:21:12.973Z,60.66
2017-08-17T22:22:23.194Z,60.66
2017-08-17T22:23:33.436Z,60.75
2017-08-17T22:24:43.358Z,60.47
2017-08-17T22:25:53.620Z,60.75
2017-08-17T22:27:03.375Z,60.47
2017-08-17T22:28:13.298Z,60.75
2017-08-17T22:29:23.539Z,60.75
2017-08-17T22:30:33.137Z,60.57
2017-08-17T22:31:43.425Z,61.05
2017-08-17T22:32:53.515Z,60.85
2017-08-17T22:34:03.440Z,60.75
2017-08-17T22:35:13.657Z,60.95
2017-08-17T22:36:23.569Z,60.69
2017-08-17T22:37:32.881Z,60.57
2017-08-17T22:38:42.801Z,60.59
2017-08-17T22:39:53.042Z,60.59
2017-08-17T22:41:02.970Z,60.5
2017-08-17T22:42:12.595Z,60.57
2017-08-17T22:43:22.527Z,60.59
2017-08-17T22:44:33.129Z,60.59
2017-08-17T22:45:43.044Z,60.59
2017-08-17T22:46:53.013Z,60.59
2017-08-17T22:48:03.625Z,60.59
2017-08-17T22:49:13.247Z,60.21
2017-08-17T22:50:23.213Z,60.4
2017-08-17T22:51:33.437Z,60.11
2017-08-17T22:52:43.663Z,60.3
2017-08-17T22:53:53.591Z,60.4
2017-08-17T22:55:03.821Z,60.11
2017-08-17T22:56:14.072Z,60.11
2017-08-17T22:57:24.308Z,59.91
2017-08-17T22:58:34.575Z,59.91
2017-08-17T22:59:44.823Z,60.01
2017-08-17T23:00:54.762Z,60.21
2017-08-17T23:02:05.142Z,60.21
2017-08-17T23:03:14.480Z,60.11
2017-08-17T23:04:24.740Z,60.21
2017-08-17T23:05:34.726Z,60.01
2017-08-17T23:06:43.744Z,60.01
2017-08-17T23:07:53.715Z,60.4
2017-08-17T23:09:03.341Z,60.11
2017-08-17T23:10:13.278Z,59.63
2017-08-17T23:11:23.205Z,60.3
2017-08-17T23:12:32.827Z,60.01
2017-08-17T23:13:42.614Z,60.21
2017-08-17T23:14:52.342Z,60.01
2017-08-17T23:16:01.982Z,60.21
2017-08-17T23:17:11.631Z,59.91
2017-08-17T23:18:21.539Z,60.59
2017-08-17T23:19:32.157Z,60.21
2017-08-17T23:20:42.408Z,60.5
2017-08-17T23:21:52.664Z,60.69
2017-08-17T23:23:02.922Z,60.59
2017-08-17T23:24:12.538Z,60.69
2017-08-17T23:25:22.469Z,60.59
2017-08-17T23:26:32.107Z,60.69
2017-08-17T23:27:42.024Z,60.98
2017-08-17T23:28:51.963Z,60.98
2017-08-17T23:30:01.605Z,60.69
2017-08-17T23:31:11.677Z,60.75
2017-08-17T23:32:21.598Z,61.24
2017-08-17T23:33:31.216Z,61.53
2017-08-17T23:34:40.523Z,61.24
2017-08-17T23:35:50.462Z,61.33
2017-08-17T23:37:00.785Z,61.43
2017-08-17T23:38:10.085Z,61.43
2017-08-17T23:39:19.698Z,61.33
2017-08-17T23:40:29.648Z,61.24
2017-08-17T23:41:39.601Z,61.43
2017-08-17T23:42:49.850Z,61.24
2017-08-17T23:43:59.464Z,61.24
2017-08-17T23:45:09.398Z,61.53
2017-08-17T23:46:18.700Z,61.33
2017-08-17T23:47:28.640Z,61.43
2017-08-17T23:48:38.572Z,61.72
2017-08-17T23:49:48.785Z,61.43
2017-08-17T23:50:58.406Z,61.82
2017-08-17T23:52:08.320Z,61.63
2017-08-17T23:53:17.926Z,61.63
2017-08-17T23:54:27.637Z,61.24
2017-08-17T23:55:37.269Z,61.4
2017-08-17T23:56:47.184Z,61.69
2017-08-17T23:57:57.110Z,61.82
2017-08-17T23:59:07.583Z,61.69
